Time;durP1;ratioP1;P1;durP2;ratioP2;P2;SDS_P1;SDS_P2;PMS_P1;PMS_P2;Temp;Humidity;BMP_temperature;BMP_pressure;BME280_temperature;BME280_humidity;BME280_pressure;Samples;Min_cycle;Max_cycle;Signal;HPM_P1;HPM_P2
2021/10/28 00:12:13;;;;;;;32.90;21.40;;;;;;;3.68;78.85;100350.25;116584;1202;22267;-64
2021/10/28 00:14:43;;;;;;;34.00;20.80;;;;;;;3.72;79.08;100344.33;116505;1201;138160;-64
2021/10/28 00:17:13;;;;;;;36.20;21.80;;;;;;;3.76;79.10;100344.50;116562;1202;22340;-64
2021/10/28 00:19:42;;;;;;;35.00;21.20;;;;;;;3.79;79.30;100345.73;116537;1202;22971;-64
2021/10/28 00:22:12;;;;;;;38.30;23.20;;;;;;;3.83;79.59;100346.70;116499;1202;138723;-64
2021/10/28 00:24:40;;;;;;;39.00;21.60;;;;;;;3.86;79.51;100340.30;116597;1202;22327;-64
2021/10/28 00:27:09;;;;;;;35.00;21.30;;;;;;;3.89;79.77;100339.27;116443;1202;138950;-63
2021/10/28 00:29:38;;;;;;;33.50;22.00;;;;;;;3.95;80.07;100344.71;116558;1202;22292;-64
2021/10/28 00:32:07;;;;;;;42.70;24.00;;;;;;;3.99;79.78;100347.20;116612;1201;23028;-64
2021/10/28 00:34:35;;;;;;;35.70;22.90;;;;;;;4.02;79.89;100346.77;116394;1203;137455;-64
2021/10/28 00:37:04;;;;;;;38.20;22.60;;;;;;;4.06;80.08;100339.16;116580;1201;22229;-64
2021/10/28 00:39:32;;;;;;;39.40;22.90;;;;;;;4.10;79.92;100336.79;116535;1202;138038;-63
2021/10/28 00:42:01;;;;;;;33.80;22.00;;;;;;;4.13;79.84;100334.08;116585;1202;22261;-63
2021/10/28 00:44:29;;;;;;;32.30;21.30;;;;;;;4.12;79.71;100335.23;116389;1203;137585;-63
2021/10/28 00:46:57;;;;;;;36.10;23.10;;;;;;;4.12;79.78;100337.55;116529;1202;22310;-63
2021/10/28 00:49:26;;;;;;;35.20;23.00;;;;;;;4.12;79.66;100339.14;116535;1201;22220;-64
2021/10/28 00:51:54;;;;;;;34.60;20.90;;;;;;;4.13;79.78;100336.56;116444;1202;137514;-63
2021/10/28 00:54:22;;;;;;;38.10;22.00;;;;;;;4.12;79.38;100330.05;116654;1202;22311;-65
2021/10/28 00:56:50;;;;;;;35.90;21.50;;;;;;;4.13;79.45;100332.26;116484;1202;139176;-64
2021/10/28 00:59:19;;;;;;;41.80;23.20;;;;;;;4.13;79.31;100329.52;116582;1196;23488;-64
2021/10/28 01:01:47;;;;;;;36.20;21.30;;;;;;;4.14;79.33;100316.33;116603;1189;22132;-64
2021/10/28 01:04:15;;;;;;;33.50;21.20;;;;;;;4.12;79.23;100313.29;116510;1202;138096;-63
2021/10/28 01:06:44;;;;;;;38.40;20.90;;;;;;;4.10;79.09;100312.64;116521;1202;22246;-63
2021/10/28 01:09:13;;;;;;;40.60;22.00;;;;;;;4.09;78.65;100302.73;116407;1202;138602;-63
2021/10/28 01:11:41;;;;;;;39.80;22.50;;;;;;;4.07;78.62;100308.55;116575;1202;22764;-63
2021/10/28 01:14:09;;;;;;;38.70;23.60;;;;;;;4.06;78.51;100310.86;116633;1202;22393;-63
2021/10/28 01:16:37;;;;;;;42.40;23.70;;;;;;;4.04;78.94;100309.11;116415;1202;137499;-63
2021/10/28 01:19:05;;;;;;;38.60;21.30;;;;;;;4.09;79.08;100315.54;116571;1201;22178;-63
2021/10/28 01:21:33;;;;;;;36.50;21.70;;;;;;;4.13;79.54;100314.24;116445;1201;139609;-63
2021/10/28 01:24:01;;;;;;;36.70;21.50;;;;;;;4.17;79.53;100311.46;116585;1202;22347;-64
2021/10/28 01:26:30;;;;;;;37.10;23.40;;;;;;;4.19;79.46;100312.91;116476;1201;138367;-64
2021/10/28 01:28:59;;;;;;;33.90;21.60;;;;;;;4.21;79.40;100310.14;116567;1202;22140;-64
2021/10/28 01:31:30;;;;;;;37.60;21.00;;;;;;;4.23;79.65;100304.84;116580;1202;22318;-64
2021/10/28 01:33:58;;;;;;;31.80;20.00;;;;;;;4.23;79.22;100297.13;116455;1202;138491;-64
2021/10/28 01:36:27;;;;;;;30.40;20.30;;;;;;;4.22;79.02;100291.81;116593;1202;22400;-64
2021/10/28 01:38:55;;;;;;;37.90;22.80;;;;;;;4.21;79.00;100283.87;116468;1202;138557;-63
2021/10/28 01:41:26;;;;;;;35.70;22.00;;;;;;;4.20;79.39;100283.11;116542;1203;22359;-64
2021/10/28 01:43:55;;;;;;;37.60;22.30;;;;;;;4.21;79.63;100291.42;112084;1203;24035;-64
2021/10/28 01:46:23;;;;;;;37.70;22.70;;;;;;;4.23;79.52;100287.95;116353;1202;137781;-64
2021/10/28 01:48:51;;;;;;;35.10;23.00;;;;;;;4.26;80.01;100286.66;116503;1203;22324;-64
2021/10/28 01:51:20;;;;;;;41.40;25.00;;;;;;;4.29;80.01;100285.39;116463;1201;137942;-64
2021/10/28 01:53:49;;;;;;;34.00;21.90;;;;;;;4.32;80.27;100286.66;116605;1202;23241;-64
2021/10/28 01:56:17;;;;;;;35.30;23.70;;;;;;;4.34;80.31;100285.40;116145;1202;138141;-63
2021/10/28 01:58:48;;;;;;;42.40;24.40;;;;;;;4.38;80.51;100281.16;116506;1203;23537;-64
2021/10/28 02:01:16;;;;;;;37.00;24.70;;;;;;;4.40;80.62;100284.41;116510;1203;22306;-64
2021/10/28 02:03:46;;;;;;;38.00;24.10;;;;;;;4.44;80.48;100286.30;116391;1202;138834;-64
2021/10/28 02:06:15;;;;;;;43.00;25.50;;;;;;;4.47;80.42;100286.48;116488;1190;22392;-64
2021/10/28 02:08:43;;;;;;;38.70;24.90;;;;;;;4.49;80.68;100280.92;116374;1203;139341;-64
2021/10/28 02:11:11;;;;;;;42.30;25.10;;;;;;;4.53;80.83;100279.33;116517;1200;22252;-64
2021/10/28 02:13:39;;;;;;;44.70;24.90;;;;;;;4.57;80.90;100275.37;116340;1201;22307;-64
2021/10/28 02:16:08;;;;;;;47.70;26.50;;;;;;;4.61;80.71;100273.81;116404;1201;138735;-64
2021/10/28 02:18:36;;;;;;;46.20;24.70;;;;;;;4.64;80.86;100276.96;116343;1202;22340;-64
2021/10/28 02:21:04;;;;;;;40.00;26.00;;;;;;;4.67;80.85;100282.71;116451;1203;137796;-64
2021/10/28 02:23:34;;;;;;;48.10;26.80;;;;;;;4.71;81.13;100289.13;116518;1203;22336;-65
2021/10/28 02:26:03;;;;;;;44.20;27.10;;;;;;;4.72;81.02;100294.87;116516;1202;23385;-64
2021/10/28 02:28:32;;;;;;;44.40;26.40;;;;;;;4.75;81.07;100294.97;116437;1201;138675;-64
2021/10/28 02:31:01;;;;;;;43.30;26.10;;;;;;;4.79;81.13;100295.59;116486;1203;22304;-64
2021/10/28 02:33:29;;;;;;;41.60;24.60;;;;;;;4.82;81.18;100296.07;116375;1203;138328;-64
2021/10/28 02:36:02;;;;;;;46.70;27.60;;;;;;;4.85;81.08;100293.17;116533;1200;22221;-64
2021/10/28 02:38:31;;;;;;;47.40;27.50;;;;;;;4.88;80.76;100290.66;116414;1202;138715;-64
2021/10/28 02:41:00;;;;;;;43.60;27.20;;;;;;;4.90;80.78;100289.09;116582;1202;22408;-64
2021/10/28 02:43:28;;;;;;;50.40;28.30;;;;;;;4.92;80.80;100282.80;116523;1203;22233;-64
2021/10/28 02:45:57;;;;;;;44.60;25.50;;;;;;;4.92;80.61;100282.92;116369;1203;138691;-64
2021/10/28 02:48:25;;;;;;;41.40;24.40;;;;;;;4.91;80.36;100280.20;116513;1203;22319;-65
2021/10/28 02:50:53;;;;;;;42.00;25.80;;;;;;;4.92;80.46;100274.20;116344;1202;138338;-64
2021/10/28 02:53:22;;;;;;;43.60;26.10;;;;;;;4.91;80.13;100275.86;116526;1201;23128;-64
2021/10/28 02:55:50;;;;;;;39.80;25.80;;;;;;;4.91;80.07;100275.62;116478;1203;22313;-63
2021/10/28 02:58:20;;;;;;;46.20;25.80;;;;;;;4.91;79.91;100275.07;116428;1203;138057;-63
2021/10/28 03:00:49;;;;;;;44.90;25.30;;;;;;;4.91;79.82;100273.25;116588;1203;22332;-63
2021/10/28 03:03:17;;;;;;;41.00;25.90;;;;;;;4.92;80.18;100275.98;116569;1200;138307;-65
2021/10/28 03:05:45;;;;;;;43.00;26.30;;;;;;;4.92;79.91;100272.67;116714;1199;22810;-63
2021/10/28 03:08:13;;;;;;;46.70;25.90;;;;;;;4.93;80.19;100269.36;116721;1200;23021;-63
2021/10/28 03:10:43;;;;;;;40.90;24.50;;;;;;;4.96;80.30;100273.48;116567;1200;138801;-63
2021/10/28 03:13:16;;;;;;;42.40;26.30;;;;;;;4.97;80.44;100269.86;116685;1200;22445;-63
2021/10/28 03:15:49;;;;;;;39.50;24.70;;;;;;;5.00;80.60;100268.14;116573;1200;138238;-63
2021/10/28 03:26:39;;;;;;;39.30;24.50;;;;;;;5.05;80.44;100267.92;116481;1200;140950;-63
2021/10/28 03:29:07;;;;;;;39.50;25.40;;;;;;;5.06;80.39;100264.94;116672;1200;23140;-64
2021/10/28 03:31:35;;;;;;;42.70;24.90;;;;;;;5.07;80.58;100259.08;116724;1200;22517;-63
2021/10/28 03:34:03;;;;;;;37.20;24.60;;;;;;;5.07;80.31;100258.66;116577;1200;138926;-63
2021/10/28 03:36:43;;;;;;;44.10;26.30;;;;;;;5.08;80.50;100265.02;116713;1200;22260;-63
2021/10/28 03:50:01;;;;;;;42.70;26.30;;;;;;;5.19;80.85;100261.79;112464;1199;24063;-62
2021/10/28 04:01:03;;;;;;;44.60;26.50;;;;;;;5.24;80.80;100256.17;112482;1200;25155;-62
2021/10/28 04:20:42;;;;;;;41.50;27.10;;;;;;;5.51;81.42;100258.36;116708;1200;22295;-63
2021/10/28 04:30:48;;;;;;;41.60;26.30;;;;;;;5.71;81.32;100254.01;116667;1201;22294;-63
2021/10/28 04:33:16;;;;;;;48.10;26.60;;;;;;;5.74;81.24;100257.51;116630;1199;138618;-63
2021/10/28 04:35:44;;;;;;;48.70;28.30;;;;;;;5.80;81.40;100256.95;116710;1201;22319;-63
2021/10/28 04:38:12;;;;;;;39.80;25.50;;;;;;;5.84;81.19;100252.04;116597;1201;23413;-63
2021/10/28 04:40:40;;;;;;;37.90;24.60;;;;;;;5.88;81.14;100246.41;116538;1201;138161;-63
2021/10/28 04:43:09;;;;;;;43.80;27.30;;;;;;;5.92;81.25;100246.58;116670;1201;22323;-63
2021/10/28 04:45:36;;;;;;;42.70;27.90;;;;;;;5.96;81.11;100243.45;116539;1200;137997;-63
2021/10/28 04:48:05;;;;;;;49.40;26.30;;;;;;;6.01;80.86;100241.23;116629;1200;22381;-64
2021/10/28 04:50:33;;;;;;;44.40;26.50;;;;;;;6.04;81.00;100242.62;116646;1200;22310;-64
2021/10/28 04:53:01;;;;;;;43.90;26.90;;;;;;;6.08;80.73;100245.29;116525;1200;139575;-64
2021/10/28 04:55:30;;;;;;;36.80;26.00;;;;;;;6.12;80.65;100249.33;116691;1200;22292;-63
2021/10/28 04:57:58;;;;;;;50.60;26.20;;;;;;;6.15;80.53;100252.12;116555;1199;138518;-63
2021/10/28 05:00:26;;;;;;;38.50;26.00;;;;;;;6.17;80.59;100252.87;116979;1198;22291;-63
2021/10/28 05:02:54;;;;;;;48.50;28.60;;;;;;;6.20;80.43;100254.27;116827;1198;138508;-63
2021/10/28 05:05:23;;;;;;;37.50;26.70;;;;;;;6.23;80.32;100257.25;116952;1198;23764;-63
2021/10/28 05:07:51;;;;;;;41.30;25.40;;;;;;;6.26;80.35;100251.83;116966;1198;22267;-63
2021/10/28 05:10:19;;;;;;;39.40;26.00;;;;;;;6.29;80.58;100257.75;116751;1198;138107;-63
2021/10/28 05:12:47;;;;;;;46.50;25.40;;;;;;;6.31;80.46;100256.20;116880;1198;22371;-63
2021/10/28 05:15:15;;;;;;;50.40;27.50;;;;;;;6.33;80.08;100258.04;116678;1198;138127;-63
2021/10/28 05:17:46;;;;;;;36.20;25.40;;;;;;;6.36;80.15;100258.92;116802;1199;24012;-62
2021/10/28 05:20:15;;;;;;;39.40;25.20;;;;;;;6.38;79.99;100257.29;116900;1198;23495;-62
2021/10/28 05:22:43;;;;;;;40.20;24.90;;;;;;;6.42;79.95;100254.79;116772;1198;138099;-64
2021/10/28 05:25:11;;;;;;;39.10;25.30;;;;;;;6.45;79.88;100244.30;116948;1198;22131;-63
2021/10/28 05:27:39;;;;;;;43.20;27.10;;;;;;;6.47;79.89;100246.16;116800;1192;138387;-64
2021/10/28 05:30:09;;;;;;;48.70;26.40;;;;;;;6.50;79.88;100245.97;116866;1198;23407;-64
2021/10/28 05:32:37;;;;;;;45.60;27.20;;;;;;;6.52;79.81;100245.29;116935;1198;22237;-64
2021/10/28 05:35:05;;;;;;;42.80;26.40;;;;;;;6.54;79.56;100240.16;116788;1198;138327;-64
2021/10/28 05:37:33;;;;;;;42.20;27.20;;;;;;;6.56;79.48;100247.91;116896;1184;22286;-64
2021/10/28 05:40:03;;;;;;;42.20;26.40;;;;;;;6.58;79.40;100250.20;115036;1193;141785;-63
2021/10/28 05:42:31;;;;;;;46.20;26.90;;;;;;;6.59;79.30;100249.87;112469;1198;22604;-63
2021/10/28 05:44:59;;;;;;;45.60;27.80;;;;;;;6.62;79.37;100261.19;112383;1193;139081;-65
2021/10/28 05:47:28;;;;;;;43.70;27.00;;;;;;;6.62;79.26;100259.48;116866;1198;22265;-64
2021/10/28 05:50:17;;;;;;;43.50;28.50;;;;;;;6.62;79.19;100263.56;116791;1184;22291;-66
2021/10/28 05:52:47;;;;;;;39.80;27.00;;;;;;;6.64;79.12;100271.41;116745;1198;138292;-64
2021/10/28 05:55:15;;;;;;;42.60;27.70;;;;;;;6.63;79.18;100268.41;116863;1198;22306;-64
2021/10/28 05:57:43;;;;;;;43.70;26.70;;;;;;;6.67;78.90;100277.27;116771;1198;138199;-64
2021/10/28 06:00:12;;;;;;;44.70;27.30;;;;;;;6.69;79.05;100285.64;116888;1198;22337;-64
2021/10/28 06:02:41;;;;;;;45.00;28.80;;;;;;;6.72;79.02;100284.22;116891;1198;22328;-64
2021/10/28 06:05:10;;;;;;;49.80;29.60;;;;;;;6.75;79.03;100282.88;116573;1198;138227;-63
2021/10/28 06:07:39;;;;;;;45.90;27.60;;;;;;;6.79;79.06;100277.98;116811;1198;22319;-64
2021/10/28 06:10:16;;;;;;;46.00;27.20;;;;;;;6.83;78.98;100273.92;116813;1197;138815;-64
2021/10/28 06:12:49;;;;;;;46.40;28.20;;;;;;;6.87;78.95;100270.20;116819;1198;22324;-64
2021/10/28 06:15:17;;;;;;;47.30;27.60;;;;;;;6.90;78.89;100275.15;116744;1198;138107;-65
2021/10/28 06:20:34;;;;;;;46.80;27.60;;;;;;;6.98;78.68;100281.55;116752;1197;22371;-64
2021/10/28 06:23:03;;;;;;;50.00;27.40;;;;;;;7.02;78.74;100286.47;116819;1198;138720;-64
2021/10/28 06:25:32;;;;;;;48.90;29.10;;;;;;;7.06;78.60;100293.15;116967;1198;22424;-64
2021/10/28 06:28:00;;;;;;;55.30;28.20;;;;;;;7.09;78.47;100298.80;116842;1197;139918;-64
2021/10/28 06:30:31;;;;;;;50.20;29.00;;;;;;;7.12;78.30;100297.08;116896;1198;22447;-64
2021/10/28 06:33:03;;;;;;;52.60;31.30;;;;;;;7.15;78.08;100302.28;116736;1197;138184;-64
2021/10/28 06:35:36;;;;;;;55.40;31.70;;;;;;;7.17;78.13;100300.77;116878;1198;22450;-63
2021/10/28 06:38:05;;;;;;;55.10;31.20;;;;;;;7.22;77.96;100298.31;116927;1198;22369;-63
2021/10/28 06:40:33;;;;;;;52.60;31.80;;;;;;;7.23;77.87;100301.02;114210;1193;138193;-64
2021/10/28 06:43:01;;;;;;;50.20;31.00;;;;;;;7.25;78.02;100305.05;116837;1194;23328;-64
2021/10/28 06:45:29;;;;;;;45.70;30.20;;;;;;;7.26;77.92;100306.67;116679;1198;139339;-65
2021/10/28 06:47:57;;;;;;;50.60;28.90;;;;;;;7.28;77.80;100306.33;116831;1198;22210;-64
2021/10/28 06:50:28;;;;;;;50.20;28.10;;;;;;;7.29;77.78;100305.83;116887;1192;22340;-65
2021/10/28 06:53:44;;;;;;;51.80;29.00;;;;;;;7.33;77.67;100304.77;116784;1198;137990;-65
2021/10/28 07:03:50;;;;;;;54.20;30.00;;;;;;;7.44;77.41;100302.86;116810;1197;139217;-65
2021/10/28 07:06:22;;;;;;;48.00;29.50;;;;;;;7.46;77.57;100302.59;116847;1198;22831;-64
2021/10/28 07:09:03;;;;;;;49.10;29.50;;;;;;;7.49;77.58;100301.20;116807;1198;138673;-64
2021/10/28 07:11:35;;;;;;;53.70;31.40;;;;;;;7.53;77.50;100302.00;116928;1198;22308;-65
2021/10/28 07:14:07;;;;;;;51.60;29.90;;;;;;;7.56;77.49;100303.48;116930;1197;22343;-63
2021/10/28 07:16:40;;;;;;;58.50;31.70;;;;;;;7.59;77.52;100305.55;116828;1198;139095;-64
2021/10/28 07:19:18;;;;;;;48.80;30.50;;;;;;;7.63;77.52;100301.61;116951;1198;22750;-65
2021/10/28 07:27:35;;;;;;;50.90;31.10;;;;;;;7.75;77.29;100298.67;116798;1198;138612;-64
2021/10/28 07:57:38;;;;;;;38.50;27.10;;;;;;;8.22;76.66;100270.95;116756;1197;138222;-65
2021/10/28 08:19:17;;;;;;;61.30;31.90;;;;;;;8.60;76.49;100244.23;116975;1197;22391;-66
2021/10/28 08:21:54;;;;;;;67.00;36.60;;;;;;;8.67;76.48;100239.98;116804;1198;138900;-66
2021/10/28 08:29:45;;;;;;;54.30;28.50;;;;;;;8.87;76.35;100233.64;116787;1198;137872;-66
2021/10/28 08:32:15;;;;;;;52.20;30.50;;;;;;;8.94;76.19;100232.31;116972;1198;22431;-66
2021/10/28 08:34:45;;;;;;;61.60;28.70;;;;;;;9.00;76.33;100233.39;116872;1198;139185;-65
2021/10/28 08:39:43;;;;;;;41.00;25.00;;;;;;;9.12;75.92;100238.69;116861;1197;140701;-63
2021/10/28 08:42:12;;;;;;;42.50;24.10;;;;;;;9.20;75.75;100237.64;117030;1198;22274;-66
2021/10/28 08:44:43;;;;;;;39.80;25.10;;;;;;;9.27;75.74;100247.81;117008;1197;23208;-64
2021/10/28 08:47:11;;;;;;;39.20;24.00;;;;;;;9.33;75.64;100247.73;116845;1198;138403;-66
2021/10/28 08:50:25;;;;;;;42.60;25.60;;;;;;;9.40;75.47;100247.35;117089;1197;23237;-64
2021/10/28 09:24:12;;;;;;;51.10;20.80;;;;;;;10.29;73.32;100252.53;117002;1197;137921;-63
2021/10/28 09:26:46;;;;;;;32.80;20.00;;;;;;;10.36;73.27;100252.80;117037;1197;23233;-63
2021/10/28 09:43:35;;;;;;;32.90;19.90;;;;;;;10.65;72.53;100244.72;116958;1198;139455;-64
2021/10/28 09:46:32;;;;;;;41.50;21.60;;;;;;;10.77;72.21;100243.42;116863;1197;138381;-64
2021/10/28 09:51:51;;;;;;;30.20;18.80;;;;;;;10.84;71.63;100235.45;116837;1198;139051;-65
2021/10/28 09:57:47;;;;;;;40.50;22.60;;;;;;;10.86;71.76;100233.08;116976;1198;22414;-64
2021/10/28 09:57:55;;;;;;;39.30;24.90;;;;;;;10.89;71.65;100227.30;116871;1198;138559;-64
2021/10/28 10:00:33;;;;;;;34.60;23.90;;;;;;;10.89;71.47;100232.83;117002;1197;22129;-64
2021/10/28 10:03:09;;;;;;;33.60;21.40;;;;;;;10.90;71.28;100236.17;117004;1197;22320;-64
2021/10/28 10:05:38;;;;;;;30.10;20.80;;;;;;;10.91;71.30;100235.37;116915;1197;138164;-64
2021/10/28 10:08:07;;;;;;;36.10;21.70;;;;;;;10.91;71.33;100242.48;116913;1197;22331;-64
2021/10/28 10:10:35;;;;;;;38.60;23.70;;;;;;;10.93;71.39;100244.20;116801;1198;139419;-64
2021/10/28 10:13:03;;;;;;;34.80;22.10;;;;;;;10.96;71.12;100238.64;116991;1188;24526;-64
2021/10/28 10:15:32;;;;;;;33.80;20.20;;;;;;;10.99;71.05;100232.73;116987;1198;22308;-64
2021/10/28 10:18:05;;;;;;;33.00;19.30;;;;;;;11.02;71.19;100230.17;116936;1198;139640;-64
2021/10/28 10:20:50;;;;;;;43.10;21.30;;;;;;;11.05;70.91;100231.37;116998;1197;22246;-63
2021/10/28 11:23:24;;;;;;;32.40;15.10;;;;;;;12.54;67.58;100189.48;116796;1198;137390;-62
2021/10/28 12:46:22;;;;;;;21.30;12.90;;;;;;;13.05;65.21;100227.44;116701;1199;22362;-64
2021/10/28 12:49:14;;;;;;;22.70;12.90;;;;;;;13.05;65.19;100232.69;116591;1199;137222;-64
2021/10/28 12:52:10;;;;;;;23.70;12.90;;;;;;;13.05;65.37;100227.76;116740;1193;22299;-64
2021/10/28 12:55:08;;;;;;;18.70;12.10;;;;;;;13.05;65.43;100223.16;116586;1199;137799;-64
2021/10/28 14:17:36;;;;;;;;;;;;;;;12.99;66.23;100277.31;116687;1193;22431;-64
2021/10/28 14:22:34;;;;;;;54.20;28.80;;;;;;;12.95;66.47;100271.04;116750;1199;22214;-64
2021/10/28 15:36:58;;;;;;;21.60;12.90;;;;;;;12.73;68.80;100323.97;116670;1199;137848;-59
2021/10/28 16:23:39;;;;;;;16.50;10.60;;;;;;;12.79;69.65;100372.77;115894;1204;139107;-64
2021/10/28 16:26:07;;;;;;;14.30;10.10;;;;;;;12.79;69.89;100376.00;116131;1203;22911;-64
2021/10/28 16:28:36;;;;;;;15.80;10.40;;;;;;;12.79;69.80;100380.49;116084;1204;22387;-64
2021/10/28 16:31:04;;;;;;;17.90;11.40;;;;;;;12.78;69.93;100383.42;116501;1200;139010;-64
2021/10/28 16:33:33;;;;;;;20.10;14.30;;;;;;;12.77;69.91;100386.64;116663;1200;22146;-64
2021/10/28 16:36:01;;;;;;;22.40;12.40;;;;;;;12.77;69.94;100384.17;116555;1200;139433;-63
2021/10/28 16:38:29;;;;;;;17.20;11.40;;;;;;;12.75;70.10;100383.33;116779;1199;23135;-63
2021/10/28 16:40:58;;;;;;;16.30;11.50;;;;;;;12.75;70.12;100382.35;116656;1200;23161;-63
2021/10/28 16:43:26;;;;;;;24.10;14.20;;;;;;;12.75;70.13;100382.40;116661;1199;140336;-63
2021/10/28 16:45:54;;;;;;;20.00;13.50;;;;;;;12.74;70.22;100382.98;116720;1199;23157;-65
2021/10/28 16:48:22;;;;;;;23.50;14.20;;;;;;;12.73;70.29;100384.39;116556;1185;138705;-65
2021/10/28 16:50:55;;;;;;;28.50;15.20;;;;;;;12.72;70.41;100385.68;116835;1199;22315;-66
2021/10/28 16:53:23;;;;;;;21.70;14.60;;;;;;;12.71;70.33;100390.58;116628;1200;22333;-65
2021/10/28 16:55:59;;;;;;;25.40;15.90;;;;;;;12.70;70.50;100394.73;116595;1193;137981;-64
2021/10/28 16:58:28;;;;;;;24.40;14.60;;;;;;;12.69;70.61;100396.17;116662;1199;23048;-64
2021/10/28 17:00:56;;;;;;;24.60;14.60;;;;;;;12.68;70.68;100395.27;116660;1199;138842;-65
2021/10/28 17:03:24;;;;;;;38.40;24.90;;;;;;;12.68;70.61;100392.70;117000;1199;23027;-65
2021/10/28 17:05:53;;;;;;;51.90;30.10;;;;;;;12.68;70.65;100397.13;116613;1199;138576;-66
2021/10/28 17:08:22;;;;;;;37.60;22.00;;;;;;;12.65;70.78;100398.95;116921;1199;22897;-67
2021/10/28 17:10:50;;;;;;;34.60;21.20;;;;;;;12.65;70.91;100403.65;116948;1199;22415;-66
2021/10/28 17:13:18;;;;;;;26.90;16.90;;;;;;;12.65;70.89;100407.91;116715;1199;138905;-66
2021/10/28 17:15:46;;;;;;;30.80;18.00;;;;;;;12.64;70.99;100407.61;116874;1199;22476;-66
2021/10/28 17:18:15;;;;;;;25.30;17.30;;;;;;;12.62;71.05;100418.45;116809;1198;138513;-66
2021/10/28 17:20:43;;;;;;;22.80;16.30;;;;;;;12.61;70.89;100416.25;116938;1199;22235;-66
2021/10/28 17:23:20;;;;;;;22.60;14.60;;;;;;;12.60;70.95;100414.81;116928;1199;22463;-66
2021/10/28 17:25:56;;;;;;;24.20;15.20;;;;;;;12.60;71.14;100413.55;116719;1199;139156;-65
2021/10/28 17:28:24;;;;;;;20.90;14.00;;;;;;;12.58;71.06;100412.76;116814;1199;23040;-65
2021/10/28 17:30:55;;;;;;;25.00;14.80;;;;;;;12.59;71.11;100414.08;116765;1199;139308;-64
2021/10/28 17:33:24;;;;;;;22.20;13.20;;;;;;;12.58;71.18;100413.69;116890;1199;22258;-64
2021/10/28 17:35:53;;;;;;;23.40;13.90;;;;;;;12.58;71.03;100414.45;116790;1198;138324;-64
2021/10/28 17:38:22;;;;;;;25.70;14.20;;;;;;;12.57;71.12;100415.75;116873;1199;22294;-63
2021/10/28 17:40:50;;;;;;;22.00;12.90;;;;;;;12.56;71.29;100421.80;116887;1199;23142;-60
2021/10/28 17:43:42;;;;;;;26.40;15.70;;;;;;;12.56;71.35;100424.31;116792;1199;138415;-60
2021/10/28 17:46:13;;;;;;;23.50;14.00;;;;;;;12.56;71.25;100423.00;116922;1184;22491;-60
2021/10/28 17:48:41;;;;;;;29.60;16.10;;;;;;;12.57;71.35;100425.86;116743;1199;138358;-60
2021/10/28 17:51:10;;;;;;;36.00;17.40;;;;;;;12.56;71.37;100425.79;116910;1199;22370;-60
2021/10/28 17:53:39;;;;;;;22.60;13.90;;;;;;;12.55;71.23;100430.33;116767;1199;138422;-60
2021/10/28 17:56:07;;;;;;;25.80;14.10;;;;;;;12.54;71.54;100429.50;116845;1199;22281;-60
2021/10/28 17:58:36;;;;;;;20.50;13.00;;;;;;;12.52;71.53;100430.08;116946;1199;22238;-60
2021/10/28 18:01:03;;;;;;;20.80;13.30;;;;;;;12.52;71.51;100430.16;116683;1199;138336;-60
2021/10/28 18:03:32;;;;;;;19.70;12.30;;;;;;;12.52;71.52;100435.42;116845;1200;22355;-61
2021/10/28 18:06:01;;;;;;;26.70;13.00;;;;;;;12.52;71.64;100439.13;116723;1199;138409;-61
2021/10/28 18:08:29;;;;;;;25.50;14.10;;;;;;;12.53;71.60;100437.13;116641;1200;22307;-61
2021/10/28 18:10:57;;;;;;;35.20;17.00;;;;;;;12.54;71.62;100437.31;116590;1200;22887;-61
2021/10/28 18:13:26;;;;;;;32.50;15.80;;;;;;;12.55;71.70;100438.20;116672;1199;138270;-61
2021/10/28 18:15:54;;;;;;;35.40;17.80;;;;;;;12.55;71.64;100442.08;116738;1200;22333;-61
2021/10/28 18:18:22;;;;;;;29.80;16.70;;;;;;;12.53;71.56;100443.14;116779;1199;138395;-61
2021/10/28 18:20:59;;;;;;;31.80;16.80;;;;;;;12.52;71.58;100438.86;116902;1199;22340;-61
2021/10/28 18:23:31;;;;;;;24.30;15.70;;;;;;;12.52;71.72;100444.77;116909;1198;22983;-60
2021/10/28 18:25:59;;;;;;;27.20;15.30;;;;;;;12.51;71.64;100440.48;116795;1199;137770;-61
2021/10/28 18:28:28;;;;;;;24.30;15.30;;;;;;;12.50;71.64;100439.17;116859;1193;22394;-60
2021/10/28 18:30:56;;;;;;;28.10;15.60;;;;;;;12.50;71.67;100437.29;116824;1199;137859;-60
2021/10/28 18:33:24;;;;;;;31.70;17.60;;;;;;;12.49;71.78;100438.86;116881;1199;22779;-61
2021/10/28 18:35:52;;;;;;;27.20;15.20;;;;;;;12.48;71.78;100442.28;116757;1199;138620;-60
2021/10/28 18:38:21;;;;;;;22.50;15.40;;;;;;;12.47;71.82;100442.15;116804;1199;22456;-61
2021/10/28 18:40:53;;;;;;;21.00;13.10;;;;;;;12.44;72.00;100440.91;116885;1199;22315;-61
2021/10/28 18:43:21;;;;;;;19.70;13.60;;;;;;;12.42;72.16;100445.02;116677;1194;139497;-61
2021/10/28 18:45:50;;;;;;;19.80;12.90;;;;;;;12.40;72.14;100450.09;116892;1199;22265;-61
2021/10/28 18:48:18;;;;;;;27.90;13.20;;;;;;;12.38;72.21;100452.52;116685;1199;139224;-60
2021/10/28 18:50:46;;;;;;;26.20;14.00;;;;;;;12.36;72.36;100448.33;116672;1200;22295;-61
2021/10/28 18:53:14;;;;;;;25.90;13.30;;;;;;;12.36;72.26;100450.28;116808;1199;23172;-61
2021/10/28 18:55:44;;;;;;;28.00;12.90;;;;;;;12.34;72.27;100452.99;116637;1199;138045;-61
2021/10/28 18:58:12;;;;;;;28.70;13.10;;;;;;;12.33;72.45;100457.02;116710;1199;23531;-61
2021/10/28 19:00:48;;;;;;;26.40;14.40;;;;;;;12.33;72.71;100459.09;116559;1200;138464;-61
2021/10/28 19:03:19;;;;;;;21.30;13.80;;;;;;;12.31;72.73;100462.06;116743;1199;22304;-61
2021/10/28 19:05:47;;;;;;;26.70;14.60;;;;;;;12.31;72.87;100461.77;116552;1200;138471;-61
2021/10/28 19:08:15;;;;;;;29.40;14.50;;;;;;;12.31;72.81;100466.65;116705;1199;22317;-61
2021/10/28 19:10:43;;;;;;;24.50;14.40;;;;;;;12.31;72.79;100467.53;116731;1200;22117;-61
2021/10/28 19:13:12;;;;;;;26.10;15.40;;;;;;;12.32;72.71;100478.24;116703;1195;139760;-60
2021/10/28 19:15:40;;;;;;;31.20;16.50;;;;;;;12.31;72.85;100472.55;116913;1199;22296;-61
2021/10/28 19:18:08;;;;;;;40.10;18.80;;;;;;;12.31;72.89;100480.41;116771;1199;138742;-60
2021/10/28 19:20:37;;;;;;;45.00;19.90;;;;;;;12.30;72.90;100480.02;116723;1200;23068;-60
2021/10/28 19:23:06;;;;;;;85.30;37.30;;;;;;;12.27;72.96;100477.67;116731;1200;23088;-60
2021/10/28 19:25:35;;;;;;;79.90;36.00;;;;;;;12.28;73.03;100487.02;116544;1200;139407;-60
2021/10/28 19:28:04;;;;;;;68.20;33.10;;;;;;;12.26;72.96;100485.18;116683;1195;23223;-60
2021/10/28 19:30:35;;;;;;;49.10;25.10;;;;;;;12.24;73.11;100489.48;116582;1200;137513;-60
2021/10/28 19:33:10;;;;;;;43.20;23.80;;;;;;;12.22;73.12;100488.30;116686;1199;22303;-60
2021/10/28 19:35:41;;;;;;;40.20;22.90;;;;;;;12.22;73.11;100491.04;116622;1199;139597;-60
2021/10/28 19:46:21;;;;;;;33.40;18.40;;;;;;;12.10;73.31;100497.37;116706;1199;22351;-61
2021/10/28 19:48:49;;;;;;;32.30;19.70;;;;;;;12.08;73.32;100502.55;116657;1199;138642;-61
2021/10/28 19:51:17;;;;;;;37.50;21.10;;;;;;;12.06;73.54;100501.96;116901;1198;22235;-61
2021/10/28 19:53:47;;;;;;;33.60;20.50;;;;;;;12.03;73.49;100503.94;116865;1199;138442;-61
2021/10/28 19:56:17;;;;;;;37.90;22.50;;;;;;;11.99;73.64;100504.83;116958;1196;22326;-61
2021/10/28 19:58:53;;;;;;;34.60;21.50;;;;;;;11.99;73.61;100511.00;116918;1199;22322;-61
2021/10/28 20:20:35;;;;;;;33.10;20.30;;;;;;;11.90;74.08;100512.09;116960;1199;22321;-61
2021/10/28 20:23:04;;;;;;;45.20;24.30;;;;;;;11.90;74.30;100513.68;116960;1199;22354;-61
2021/10/28 20:25:32;;;;;;;39.80;22.50;;;;;;;11.90;74.32;100515.73;116825;1199;140559;-61